OXFORD AIRPORT | Local Weather
17097
page-template-default,page,page-id-17097,ajax_fade,page_not_loaded,,hide_top_bar_on_mobile_header,qode-child-theme-ver-1.0.0,qode-theme-ver-10.0,wpb-js-composer js-comp-ver-4.11.2.1,vc_responsive
 

LOCAL WEATHER

METAR & TAF for EGTK Oxford

Available data for EGTK from the past hour
OXFORD
Metar
EGTK 161550Z 11005KT 7000 OVC005 11/10 Q1024

15:50 UTC

Wind: 110° 5kt

Visibility: 7000 m

Sky: OVC 500 ft

Temp: 11 deg C / 51.8 deg F

Dewpoint: 10 deg C / 50 deg F

Pressure: 1024 hPa

TAF
TAF EGTK 161358Z 1615/1623 11005KT 9999 BKN015 TEMPO 1615/1617 7000 BKN008 BECMG 1617/1620 6000 BKN008 TEMPO 1618/1623 4000 DZ BR BKN004